Terminal Aerodrome Forecast
Issued by NWS

Home | Current Version | Previous Version | Text Only | Print | Product List | Glossary On
Versions: 1 2 3 4 5 6 7 8 9 10 11 12 13 14
914
FTUS43 KGRB 241720
TAFMTW
TAF
KMTW 241720Z 2418/2518 16010KT P6SM BKN150
     FM250200 15007KT P6SM BKN150 WS020/16040KT
     FM250900 16010KT P6SM BKN130=

USA.gov is the U.S. government's official web portal to all federal, state and local government web resources and services.